createdAt,value
2018-09-02T00:00:53.703Z,5.00
2018-09-02T00:03:22.213Z,4.87
2018-09-02T00:05:50.765Z,4.78
2018-09-02T00:08:19.181Z,4.53
2018-09-02T00:10:47.842Z,5.17
2018-09-02T00:13:16.494Z,5.42
2018-09-02T00:15:45.087Z,5.05
2018-09-02T00:18:13.727Z,5.23
2018-09-02T00:20:42.299Z,5.03
2018-09-02T00:23:10.755Z,5.12
2018-09-02T00:25:39.207Z,4.85
2018-09-02T00:28:07.743Z,4.80
2018-09-02T00:30:36.225Z,5.30
2018-09-02T00:33:04.763Z,5.28
2018-09-02T00:35:33.358Z,4.80
2018-09-02T00:38:01.881Z,4.87
2018-09-02T00:40:30.324Z,4.75
2018-09-02T00:42:58.809Z,4.35
2018-09-02T00:45:27.273Z,4.50
2018-09-02T00:47:55.805Z,4.75
2018-09-02T00:50:24.899Z,4.72
2018-09-02T00:52:53.491Z,4.75
2018-09-02T00:55:22.106Z,4.70
2018-09-02T00:57:50.510Z,4.30
2018-09-02T01:00:19.135Z,4.65
2018-09-02T01:02:47.653Z,4.50
2018-09-02T01:05:16.147Z,4.72
2018-09-02T01:07:44.741Z,5.07
2018-09-02T01:10:13.266Z,4.92
2018-09-02T01:12:41.897Z,4.50
2018-09-02T01:15:10.426Z,4.77
2018-09-02T01:17:39.012Z,4.50
2018-09-02T01:20:07.434Z,4.67
2018-09-02T01:22:35.867Z,4.58
2018-09-02T01:25:04.428Z,4.60
2018-09-02T01:27:32.882Z,4.65
2018-09-02T01:30:01.351Z,4.60
2018-09-02T01:32:29.891Z,4.40
2018-09-02T01:34:58.318Z,4.90
2018-09-02T01:37:26.847Z,4.58
2018-09-02T01:39:55.623Z,4.60
2018-09-02T01:42:24.231Z,4.37
2018-09-02T01:44:52.691Z,4.60
2018-09-02T01:47:21.178Z,4.83
2018-09-02T01:49:49.814Z,4.55
2018-09-02T01:52:18.626Z,4.25
2018-09-02T01:54:47.406Z,4.40
2018-09-02T01:57:16.073Z,4.50
2018-09-02T01:59:45.862Z,4.85
2018-09-02T02:02:20.225Z,4.22
2018-09-02T02:04:48.800Z,4.42
2018-09-02T02:07:17.268Z,4.60
2018-09-02T02:09:45.692Z,4.30
2018-09-02T02:12:14.268Z,4.70
2018-09-02T02:14:42.728Z,4.30
2018-09-02T02:17:11.212Z,4.00
2018-09-02T02:19:39.732Z,4.60
2018-09-02T02:22:08.379Z,4.58
2018-09-02T02:24:36.822Z,4.20
2018-09-02T02:27:05.701Z,4.42
2018-09-02T02:29:34.230Z,4.37
2018-09-02T02:32:03.903Z,4.22
2018-09-02T02:34:32.346Z,4.50
2018-09-02T02:37:01.442Z,4.40
2018-09-02T02:39:31.022Z,4.60
2018-09-02T02:42:00.041Z,4.10
2018-09-02T02:44:28.534Z,4.50
2018-09-02T02:46:57.023Z,4.65
2018-09-02T02:49:25.634Z,4.20
2018-09-02T02:51:54.144Z,4.63
2018-09-02T02:54:22.608Z,4.65
2018-09-02T02:56:51.056Z,4.50
2018-09-02T02:59:19.602Z,4.40
2018-09-02T03:01:48.213Z,4.60
2018-09-02T03:04:16.728Z,4.55
2018-09-02T03:06:45.270Z,4.60
2018-09-02T03:09:13.690Z,4.50
2018-09-02T03:11:42.499Z,4.58
2018-09-02T03:14:11.630Z,4.20
2018-09-02T03:16:40.335Z,4.78
2018-09-02T03:19:09.304Z,4.77
2018-09-02T03:21:37.756Z,4.92
2018-09-02T03:24:06.381Z,4.57
2018-09-02T03:26:34.974Z,4.55
2018-09-02T03:29:03.502Z,4.75
2018-09-02T03:31:32.013Z,4.60
2018-09-02T03:34:00.525Z,4.60
2018-09-02T03:36:29.076Z,4.47
2018-09-02T03:38:57.531Z,4.30
2018-09-02T03:41:25.964Z,4.30
2018-09-02T03:43:54.418Z,4.17
2018-09-02T03:46:23.017Z,4.60
2018-09-02T03:48:51.490Z,4.47
2018-09-02T03:51:20.066Z,4.77
2018-09-02T03:53:48.554Z,4.15
2018-09-02T03:56:17.103Z,3.90
2018-09-02T03:58:45.564Z,4.20
2018-09-02T04:01:14.070Z,4.40
2018-09-02T04:03:42.496Z,4.22
2018-09-02T04:06:10.954Z,4.55
2018-09-02T04:08:39.394Z,4.42
2018-09-02T04:11:07.872Z,4.33
2018-09-02T04:13:36.350Z,4.20
2018-09-02T04:16:04.902Z,4.08
2018-09-02T04:18:33.846Z,3.90
2018-09-02T04:21:04.286Z,3.92
2018-09-02T04:23:33.021Z,4.25
2018-09-02T04:26:02.248Z,4.08
2018-09-02T04:28:31.035Z,4.37
2018-09-02T04:30:59.621Z,4.20
2018-09-02T04:33:28.110Z,4.20
2018-09-02T04:35:56.545Z,4.07
2018-09-02T04:38:25.060Z,4.30
2018-09-02T04:40:53.637Z,4.00
2018-09-02T04:43:22.168Z,3.85
2018-09-02T04:45:50.678Z,4.00
2018-09-02T04:48:19.702Z,4.28
2018-09-02T04:50:48.284Z,4.53
2018-09-02T04:53:16.766Z,4.28
2018-09-02T04:55:45.314Z,4.17
2018-09-02T04:58:13.780Z,4.12
2018-09-02T05:00:42.296Z,4.10
2018-09-02T05:03:11.047Z,4.42
2018-09-02T05:05:39.529Z,4.17
2018-09-02T05:08:07.989Z,4.13
2018-09-02T05:10:36.417Z,4.30
2018-09-02T05:13:04.929Z,4.50
2018-09-02T05:15:33.486Z,4.10
2018-09-02T05:18:01.973Z,4.23
2018-09-02T05:20:30.498Z,4.30
2018-09-02T05:22:59.137Z,4.42
2018-09-02T05:25:27.700Z,4.65
2018-09-02T05:27:56.171Z,4.30
2018-09-02T05:30:24.857Z,4.58
2018-09-02T05:32:53.486Z,4.20
2018-09-02T05:35:21.923Z,4.20
2018-09-02T05:37:50.298Z,4.55
2018-09-02T05:40:18.769Z,4.47
2018-09-02T05:42:47.334Z,4.30
2018-09-02T05:45:15.850Z,4.37
2018-09-02T05:47:44.280Z,4.55
2018-09-02T05:50:12.683Z,4.87
2018-09-02T05:52:41.161Z,4.53
2018-09-02T05:55:09.769Z,4.43
2018-09-02T05:57:38.312Z,5.42
2018-09-02T06:00:07.082Z,5.25
2018-09-02T06:02:35.530Z,4.87
2018-09-02T06:05:04.135Z,4.70
2018-09-02T06:07:32.534Z,4.80
2018-09-02T06:10:00.998Z,4.70
2018-09-02T06:12:30.547Z,4.80
2018-09-02T06:14:59.101Z,4.80
2018-09-02T06:17:27.640Z,5.00
2018-09-02T06:19:56.206Z,5.27
2018-09-02T06:22:24.820Z,4.72
2018-09-02T06:24:53.190Z,5.17
2018-09-02T06:27:21.640Z,4.80
2018-09-02T06:29:50.156Z,4.75
2018-09-02T06:32:18.667Z,4.60
2018-09-02T06:34:47.139Z,4.53
2018-09-02T06:37:15.765Z,4.73
2018-09-02T06:39:44.232Z,4.47
2018-09-02T06:42:12.873Z,4.40
2018-09-02T06:44:41.359Z,4.67
2018-09-02T06:47:09.838Z,4.60
2018-09-02T06:49:38.510Z,4.35
2018-09-02T06:52:07.099Z,4.27
2018-09-02T06:54:35.609Z,4.40
2018-09-02T06:57:04.185Z,4.42
2018-09-02T06:59:32.614Z,4.30
2018-09-02T07:02:01.309Z,4.78
2018-09-02T07:04:29.819Z,4.10
2018-09-02T07:06:58.308Z,4.10
2018-09-02T07:09:26.784Z,4.35
2018-09-02T07:11:55.325Z,4.20
2018-09-02T07:14:23.948Z,4.70
2018-09-02T07:16:52.305Z,4.67
2018-09-02T07:19:20.871Z,4.60
2018-09-02T07:21:49.333Z,4.20
2018-09-02T07:24:17.770Z,4.10
2018-09-02T07:26:46.270Z,4.57
2018-09-02T07:29:14.775Z,4.10
2018-09-02T07:31:43.196Z,4.45
2018-09-02T07:34:11.873Z,4.78
2018-09-02T07:36:40.282Z,4.37
2018-09-02T07:39:08.913Z,4.10
2018-09-02T07:41:38.039Z,4.40
2018-09-02T07:44:06.651Z,4.60
2018-09-02T07:46:35.067Z,4.33
2018-09-02T07:49:03.625Z,4.80
2018-09-02T07:51:32.268Z,4.37
2018-09-02T07:54:00.686Z,4.40
2018-09-02T07:56:29.127Z,4.53
2018-09-02T07:58:57.558Z,4.50
2018-09-02T08:01:26.694Z,4.83
2018-09-02T08:03:55.325Z,4.33
2018-09-02T08:06:23.875Z,4.30
2018-09-02T08:08:52.469Z,4.50
2018-09-02T08:11:21.007Z,4.70
2018-09-02T08:13:49.560Z,4.30
2018-09-02T08:16:19.436Z,4.80
2018-09-02T08:18:47.935Z,4.70
2018-09-02T08:21:16.532Z,4.80
2018-09-02T08:23:45.510Z,4.60
2018-09-02T08:26:14.010Z,4.90
2018-09-02T08:28:42.638Z,4.70
2018-09-02T08:31:11.282Z,4.90
2018-09-02T08:33:39.971Z,5.67
2018-09-02T08:36:08.416Z,6.42
2018-09-02T08:38:37.023Z,5.08
2018-09-02T08:41:05.741Z,4.83
2018-09-02T08:43:34.221Z,4.70
2018-09-02T08:46:02.658Z,4.80
2018-09-02T08:48:31.157Z,4.85
2018-09-02T08:50:59.775Z,4.70
2018-09-02T08:53:28.328Z,4.67
2018-09-02T08:55:56.956Z,4.90
2018-09-02T08:58:25.546Z,4.70
2018-09-02T09:00:54.110Z,5.20
2018-09-02T09:03:22.716Z,5.20
2018-09-02T09:05:51.288Z,5.07
2018-09-02T09:08:20.010Z,5.12
2018-09-02T09:10:48.331Z,5.00
2018-09-02T09:13:16.937Z,4.90
2018-09-02T09:15:45.487Z,5.10
2018-09-02T09:18:13.992Z,4.90
2018-09-02T09:20:42.520Z,4.80
2018-09-02T09:23:11.273Z,5.17
2018-09-02T09:25:39.764Z,5.87
2018-09-02T09:28:08.596Z,5.22
2018-09-02T09:30:37.056Z,5.85
2018-09-02T09:33:05.639Z,5.58
2018-09-02T09:35:34.137Z,6.77
2018-09-02T09:38:02.720Z,5.35
2018-09-02T09:40:31.187Z,5.72
2018-09-02T09:42:59.706Z,5.23
2018-09-02T09:45:28.237Z,5.62
2018-09-02T09:47:56.744Z,6.10
2018-09-02T09:50:25.201Z,5.70
2018-09-02T09:52:53.647Z,5.67
2018-09-02T09:55:22.171Z,5.72
2018-09-02T09:57:50.653Z,5.80
2018-09-02T10:00:24.224Z,6.00
2018-09-02T10:02:52.855Z,5.53
2018-09-02T10:05:21.312Z,5.90
2018-09-02T10:07:50.911Z,5.83
2018-09-02T10:10:19.401Z,5.55
2018-09-02T10:12:47.979Z,6.08
2018-09-02T10:15:16.439Z,6.42
2018-09-02T10:17:44.831Z,6.80
2018-09-02T10:20:13.272Z,6.12
2018-09-02T10:22:41.898Z,6.42
2018-09-02T10:25:10.422Z,7.50
2018-09-02T10:27:39.402Z,6.60
2018-09-02T10:30:08.083Z,6.20
2018-09-02T10:32:36.815Z,6.30
2018-09-02T10:35:05.299Z,6.27
2018-09-02T10:37:33.747Z,6.35
2018-09-02T10:40:02.262Z,6.60
2018-09-02T10:42:35.902Z,7.05
2018-09-02T10:45:04.304Z,6.53
2018-09-02T10:47:32.691Z,7.10
2018-09-02T10:50:01.303Z,6.90
2018-09-02T10:52:29.831Z,6.40
2018-09-02T10:54:59.358Z,7.08
2018-09-02T10:57:27.967Z,7.20
2018-09-02T10:59:56.456Z,6.92
2018-09-02T11:02:24.904Z,7.40
2018-09-02T11:04:53.548Z,7.85
2018-09-02T11:07:22.051Z,7.55
2018-09-02T11:09:50.594Z,7.07
2018-09-02T11:12:19.113Z,6.85
2018-09-02T11:14:47.566Z,7.17
2018-09-02T11:17:16.175Z,7.45
2018-09-02T11:19:44.676Z,10.03
2018-09-02T11:22:13.210Z,8.28
2018-09-02T11:24:41.764Z,7.70
2018-09-02T11:27:10.298Z,8.35
2018-09-02T11:29:38.827Z,8.20
2018-09-02T11:32:07.366Z,7.80
2018-09-02T11:34:35.955Z,7.83
2018-09-02T11:37:04.450Z,8.05
2018-09-02T11:39:32.866Z,7.90
2018-09-02T11:42:01.362Z,7.77
2018-09-02T11:44:29.817Z,7.72
2018-09-02T11:46:58.227Z,7.50
2018-09-02T11:49:26.659Z,7.33
2018-09-02T11:51:55.948Z,7.90
2018-09-02T11:54:24.567Z,8.20
2018-09-02T11:56:53.219Z,7.87
2018-09-02T12:02:04.848Z,8.20
2018-09-02T12:04:33.343Z,8.10
2018-09-02T12:07:01.859Z,7.85
2018-09-02T12:09:30.325Z,7.95
2018-09-02T12:11:58.917Z,8.00
2018-09-02T12:14:27.433Z,7.92
2018-09-02T12:16:55.910Z,8.25
2018-09-02T12:19:24.578Z,8.23
2018-09-02T12:21:53.208Z,8.58
2018-09-02T12:24:21.755Z,7.87
2018-09-02T12:26:50.573Z,8.53
2018-09-02T12:29:19.173Z,9.25
2018-09-02T12:31:47.608Z,8.80
2018-09-02T12:34:16.196Z,9.53
2018-09-02T12:36:44.921Z,8.88
2018-09-02T12:39:13.455Z,9.57
2018-09-02T12:41:51.473Z,9.20
2018-09-02T12:44:21.197Z,9.77
2018-09-02T12:49:29.526Z,9.30
2018-09-02T12:54:47.905Z,9.65
2018-09-02T12:57:19.367Z,10.03
2018-09-02T12:59:48.142Z,10.40
2018-09-02T13:02:17.689Z,9.77
2018-09-02T13:04:47.071Z,10.08
2018-09-02T13:07:16.514Z,10.35
2018-09-02T13:09:48.575Z,10.32
2018-09-02T13:12:18.295Z,10.35
2018-09-02T13:14:47.051Z,9.58
2018-09-02T13:17:15.884Z,10.80
2018-09-02T13:19:44.699Z,10.58
2018-09-02T13:24:59.412Z,11.20
2018-09-02T13:27:34.325Z,12.15
2018-09-02T13:30:03.354Z,12.30
2018-09-02T13:32:32.575Z,12.03
2018-09-02T13:37:41.295Z,11.25
2018-09-02T13:40:10.647Z,11.97
2018-09-02T13:42:39.755Z,11.80
2018-09-02T13:45:09.954Z,12.60
2018-09-02T13:47:40.170Z,12.90
2018-09-02T13:52:53.944Z,12.80
2018-09-02T13:55:22.918Z,12.88
2018-09-02T13:57:53.284Z,12.27
2018-09-02T14:03:02.092Z,11.68
2018-09-02T14:05:31.880Z,11.60
2018-09-02T14:08:00.682Z,11.60
2018-09-02T14:10:29.090Z,12.20
2018-09-02T14:12:57.665Z,11.73
2018-09-02T14:15:26.340Z,12.35
2018-09-02T14:17:55.099Z,11.80
2018-09-02T14:20:23.848Z,12.37
2018-09-02T14:22:52.574Z,11.80
2018-09-02T14:25:22.844Z,12.20
2018-09-02T14:27:51.632Z,12.15
2018-09-02T14:30:24.341Z,12.07
2018-09-02T14:32:53.258Z,11.88
2018-09-02T14:35:22.590Z,11.30
2018-09-02T14:37:52.183Z,12.67
2018-09-02T14:40:20.792Z,13.70
2018-09-02T14:42:49.724Z,13.10
2018-09-02T14:45:18.766Z,13.25
2018-09-02T14:47:50.936Z,15.63
2018-09-02T14:50:19.581Z,13.08
2018-09-02T14:52:48.472Z,13.38
2018-09-02T14:55:17.464Z,12.60
2018-09-02T14:57:46.660Z,13.13
2018-09-02T15:00:15.452Z,13.43
2018-09-02T15:02:46.638Z,15.03
2018-09-02T15:05:17.318Z,15.05
2018-09-02T15:07:49.301Z,15.73
2018-09-02T15:10:18.953Z,14.38
2018-09-02T15:12:54.916Z,14.60
2018-09-02T15:15:27.788Z,14.93
2018-09-02T15:17:57.178Z,14.68
2018-09-02T15:20:26.027Z,14.95
2018-09-02T15:22:55.865Z,15.18
2018-09-02T15:25:24.417Z,15.33
2018-09-02T15:27:53.094Z,14.65
2018-09-02T15:30:22.406Z,14.87
2018-09-02T15:32:51.056Z,16.00
2018-09-02T15:35:19.819Z,16.30
2018-09-02T15:37:48.406Z,16.07
2018-09-02T15:40:17.027Z,16.00
2018-09-02T15:42:45.661Z,16.60
2018-09-02T15:45:14.350Z,16.80
2018-09-02T15:47:42.972Z,17.32
2018-09-02T15:50:11.629Z,17.17
2018-09-02T15:52:40.216Z,18.33
2018-09-02T15:55:08.918Z,17.37
2018-09-02T15:57:37.493Z,17.02
2018-09-02T16:00:07.003Z,17.77
2018-09-02T16:02:35.561Z,18.80
2018-09-02T16:05:03.999Z,18.48
2018-09-02T16:07:33.177Z,18.10
2018-09-02T16:10:02.761Z,18.27
2018-09-02T16:12:31.751Z,18.80
2018-09-02T16:15:00.458Z,19.27
2018-09-02T16:17:29.533Z,19.32
2018-09-02T16:19:58.179Z,19.15
2018-09-02T16:22:27.253Z,20.37
2018-09-02T16:24:56.100Z,21.10
2018-09-02T16:27:24.844Z,20.35
2018-09-02T16:29:53.695Z,19.50
2018-09-02T16:32:22.453Z,22.45
2018-09-02T16:34:51.175Z,22.80
2018-09-02T16:37:19.885Z,21.37
2018-09-02T16:39:48.675Z,21.50
2018-09-02T16:42:17.588Z,23.10
2018-09-02T16:44:46.333Z,23.47
2018-09-02T16:47:15.090Z,23.92
2018-09-02T16:49:43.753Z,24.97
2018-09-02T16:52:12.369Z,25.77
2018-09-02T16:54:41.068Z,26.07
2018-09-02T16:57:09.872Z,24.60
2018-09-02T16:59:38.433Z,24.63
2018-09-02T17:02:07.145Z,29.57
2018-09-02T17:04:37.913Z,27.80
2018-09-02T17:07:06.364Z,26.97
2018-09-02T17:09:35.042Z,28.83
2018-09-02T17:12:03.832Z,25.72
2018-09-02T17:14:32.299Z,25.43
2018-09-02T17:17:00.812Z,26.25
2018-09-02T17:19:32.599Z,26.50
2018-09-02T17:22:01.290Z,27.25
2018-09-02T17:24:29.801Z,33.60
2018-09-02T17:26:58.346Z,30.70
2018-09-02T17:29:26.860Z,30.95
2018-09-02T17:31:55.444Z,32.90
2018-09-02T17:34:24.046Z,31.87
2018-09-02T17:36:52.785Z,32.30
2018-09-02T17:39:21.323Z,31.73
2018-09-02T17:41:49.843Z,32.33
2018-09-02T17:44:18.364Z,31.25
2018-09-02T17:46:46.887Z,33.78
2018-09-02T17:49:15.907Z,32.40
2018-09-02T17:51:44.492Z,30.00
2018-09-02T17:54:13.147Z,29.10
2018-09-02T17:56:41.801Z,27.35
2018-09-02T17:59:10.398Z,27.40
2018-09-02T18:01:38.969Z,26.80
2018-09-02T18:04:07.450Z,26.35
2018-09-02T18:06:35.907Z,24.12
2018-09-02T18:09:06.237Z,25.30
2018-09-02T18:11:35.060Z,26.02
2018-09-02T18:14:03.549Z,25.50
2018-09-02T18:16:32.269Z,26.85
2018-09-02T18:19:00.785Z,25.93
2018-09-02T18:21:29.495Z,25.25
2018-09-02T18:23:58.216Z,24.72
2018-09-02T18:26:26.787Z,28.67
2018-09-02T18:28:56.035Z,25.68
2018-09-02T18:31:24.747Z,26.80
2018-09-02T18:33:53.177Z,27.98
2018-09-02T18:36:21.749Z,28.50
2018-09-02T18:38:50.357Z,28.27
2018-09-02T18:41:18.819Z,28.77
2018-09-02T18:43:47.613Z,27.58
2018-09-02T18:46:17.443Z,28.07
2018-09-02T18:48:45.895Z,30.17
2018-09-02T18:51:14.543Z,30.20
2018-09-02T18:53:43.031Z,28.65
2018-09-02T18:56:11.519Z,30.65
2018-09-02T18:58:40.013Z,28.13
2018-09-02T19:01:08.640Z,27.85
2018-09-02T19:03:37.115Z,29.70
2018-09-02T19:06:05.740Z,29.23
2018-09-02T19:08:34.259Z,28.87
2018-09-02T19:11:02.813Z,28.57
2018-09-02T19:13:31.318Z,28.67
2018-09-02T19:16:01.335Z,26.70
2018-09-02T19:18:31.593Z,27.82
2018-09-02T19:21:01.065Z,28.47
2018-09-02T19:23:30.463Z,26.80
2018-09-02T19:25:59.283Z,26.07
2018-09-02T19:28:27.745Z,26.33
2018-09-02T19:30:57.234Z,27.10
2018-09-02T19:33:25.989Z,26.52
2018-09-02T19:35:55.845Z,25.80
2018-09-02T19:38:24.917Z,25.50
2018-09-02T19:40:53.541Z,27.03
2018-09-02T19:43:22.066Z,26.45
2018-09-02T19:45:50.609Z,26.20
2018-09-02T19:48:19.442Z,25.83
2018-09-02T19:50:48.025Z,25.72
2018-09-02T19:53:16.759Z,24.80
2018-09-02T19:55:45.312Z,26.27
2018-09-02T19:58:13.819Z,26.20
2018-09-02T20:00:42.279Z,25.02
2018-09-02T20:03:11.036Z,24.80
2018-09-02T20:05:39.489Z,24.87
2018-09-02T20:08:08.009Z,24.60
2018-09-02T20:10:36.533Z,23.53
2018-09-02T20:13:05.101Z,23.67
2018-09-02T20:15:33.563Z,22.73
2018-09-02T20:18:03.045Z,23.07
2018-09-02T20:20:32.205Z,22.80
2018-09-02T20:23:00.736Z,21.87
2018-09-02T20:25:29.114Z,21.73
2018-09-02T20:27:57.674Z,21.70
2018-09-02T20:30:26.768Z,21.37
2018-09-02T20:32:55.267Z,21.80
2018-09-02T20:35:23.780Z,20.25
2018-09-02T20:37:52.851Z,19.60
2018-09-02T20:40:21.363Z,18.70
2018-09-02T20:42:50.006Z,18.60
2018-09-02T20:45:18.462Z,18.65
2018-09-02T20:47:46.944Z,19.42
2018-09-02T20:50:15.457Z,17.87
2018-09-02T20:52:44.359Z,18.45
2018-09-02T20:55:12.919Z,18.47
2018-09-02T20:57:41.477Z,18.42
2018-09-02T21:00:09.939Z,19.10
2018-09-02T21:02:38.555Z,18.40
2018-09-02T21:05:07.018Z,18.60
2018-09-02T21:07:35.593Z,18.77
2018-09-02T21:10:04.093Z,18.52
2018-09-02T21:12:32.685Z,17.23
2018-09-02T21:15:01.211Z,17.42
2018-09-02T21:17:29.712Z,17.00
2018-09-02T21:19:58.129Z,16.70
2018-09-02T21:22:26.679Z,16.23
2018-09-02T21:24:55.242Z,17.23
2018-09-02T21:27:23.735Z,16.27
2018-09-02T21:29:52.187Z,16.37
2018-09-02T21:32:21.221Z,16.10
2018-09-02T21:34:49.880Z,16.13
2018-09-02T21:37:18.339Z,15.55
2018-09-02T21:39:46.848Z,16.50
2018-09-02T21:42:15.317Z,15.50
2018-09-02T21:44:43.719Z,15.10
2018-09-02T21:47:12.185Z,14.85
2018-09-02T21:49:40.694Z,15.10
2018-09-02T21:52:09.275Z,14.07
2018-09-02T21:54:37.758Z,13.27
2018-09-02T21:57:06.282Z,13.60
2018-09-02T21:59:35.120Z,12.82
2018-09-02T22:02:03.648Z,12.20
2018-09-02T22:04:32.098Z,11.83
2018-09-02T22:07:00.494Z,12.30
2018-09-02T22:09:29.028Z,11.88
2018-09-02T22:11:57.505Z,11.73
2018-09-02T22:14:26.329Z,12.07
2018-09-02T22:16:54.737Z,12.58
2018-09-02T22:19:23.362Z,12.18
2018-09-02T22:21:51.763Z,12.82
2018-09-02T22:24:20.245Z,12.73
2018-09-02T22:26:48.759Z,14.05
2018-09-02T22:29:17.283Z,12.88
2018-09-02T22:31:45.715Z,13.90
2018-09-02T22:34:14.205Z,12.93
2018-09-02T22:36:42.688Z,12.03
2018-09-02T22:39:11.243Z,11.65
2018-09-02T22:41:39.848Z,11.07
2018-09-02T22:44:08.655Z,11.20
2018-09-02T22:46:37.061Z,11.20
2018-09-02T22:49:05.501Z,10.83
2018-09-02T22:51:34.192Z,10.50
2018-09-02T22:54:02.646Z,11.40
2018-09-02T22:56:31.091Z,10.13
2018-09-02T22:58:59.520Z,10.30
2018-09-02T23:01:28.145Z,10.10
2018-09-02T23:03:56.525Z,9.63
2018-09-02T23:06:24.949Z,10.30
2018-09-02T23:08:53.341Z,9.60
2018-09-02T23:11:22.191Z,9.73
2018-09-02T23:13:50.737Z,8.93
2018-09-02T23:16:19.195Z,9.63
2018-09-02T23:18:47.651Z,10.13
2018-09-02T23:21:16.075Z,9.13
2018-09-02T23:23:44.809Z,9.65
2018-09-02T23:26:13.256Z,8.93
2018-09-02T23:28:41.762Z,8.90
2018-09-02T23:31:10.203Z,9.35
2018-09-02T23:33:38.666Z,9.58
2018-09-02T23:36:07.183Z,9.65
2018-09-02T23:38:35.618Z,9.00
2018-09-02T23:41:04.171Z,10.15
2018-09-02T23:43:32.636Z,10.15
2018-09-02T23:46:01.080Z,9.13
2018-09-02T23:48:30.540Z,9.60
2018-09-02T23:50:59.296Z,9.93
2018-09-02T23:53:27.865Z,10.40
2018-09-02T23:55:56.325Z,10.63
2018-09-02T23:58:24.844Z,10.13
